Hauptseite
METAR-TAF:

METAR-TAF

Flughäfen :

Flughafen Conakry

Conakry, Guinea

Breite: 09-34N, Länge: 013-37W, Höhe: 26 m

Beobachtung

Neuester Wetterbericht von vor 6 Stunden und 49 Minuten, um 08:00 UTC
Windstille
Temperatur 27°C
Luftfeuchtigkeit 79%
Luftdruck 1013 hPa
Sichtweite 10 km oder mehr
Leicht bewölkt in der Höhe von 1500 ft

METAR: GUCY 250800Z 00000KT 9999 FEW015 27/23 Q1013 NOSIG

Zeit: 14:49 (14:49 UTC)

Prognose

Neuester Wetterbericht von vor 9 Stunden und 49 Minuten, um 05:00 UTC
Gültige Prognose vom 25 um 06 UTC bis 26 um 12 UTC
Wind 6 kt aus West
Sichtweite 10 km oder mehr
Leicht bewölkt in der Höhe von 1500 ft
Zeitweise
vom 25 um 06 UTC bis 25 um 10 UTC
Wind 4 kt aus West
Zeitweise
zwischen CA und VO UTC

TAF: GUCY 250500Z 2506/2612 26006KT 9999 FEW015 TEMPO 2506/2510 28004KT TEMPO CAVOK

Wetterbeobachtungen und Prognosen von mehr als 4000 Flughäfen (METAR und TAF Bericht).

Die verfügbaren Stationen werden durch gelbe und rote Markierungen auf der Karte dargestellt.

Führen Sie die Maus auf sie, um den Namen der Station zu sehen.

Darauf klicken, um die Beobachtung von Wetterbeobachtungen und Prognosen zu sehen.

Um die Karte zu ändern : klicken Sie auf den grünen Tasten mit einem schwarzen Kreuz Zum Vergrößern, auf den grünen Button mit einem Gedankenstrich zu verkleinern, oder auf die grünen Pfeile für benachbarte Karten.


METAR-TAF: